createdAt,value
2023-04-27T00:02:08.420Z,79.20
2023-04-27T00:04:36.678Z,78.70
2023-04-27T00:07:04.554Z,79.20
2023-04-27T00:09:32.257Z,79.30
2023-04-27T00:11:59.812Z,79.50
2023-04-27T00:14:28.786Z,79.60
2023-04-27T00:16:57.004Z,78.60
2023-04-27T00:19:24.584Z,78.50
2023-04-27T00:21:52.174Z,78.20
2023-04-27T00:24:20.092Z,78.50
2023-04-27T00:26:47.632Z,79.10
2023-04-27T00:29:15.522Z,79.40
2023-04-27T00:31:43.327Z,79.40
2023-04-27T00:34:11.000Z,79.20
2023-04-27T00:36:38.577Z,80.10
2023-04-27T00:39:06.596Z,80.60
2023-04-27T00:41:38.420Z,80.70
2023-04-27T00:44:06.415Z,81.60
2023-04-27T00:46:36.354Z,81.90
2023-04-27T00:49:04.552Z,82.00
2023-04-27T00:51:32.409Z,81.80
2023-04-27T00:54:01.014Z,81.50
2023-04-27T00:56:28.699Z,82.00
2023-04-27T00:58:56.339Z,82.80
2023-04-27T01:01:24.158Z,82.50
2023-04-27T01:03:52.051Z,82.30
2023-04-27T01:06:19.870Z,82.40
2023-04-27T01:08:47.950Z,82.70
2023-04-27T01:11:16.119Z,82.50
2023-04-27T01:13:43.664Z,81.90
2023-04-27T01:16:11.636Z,80.90
2023-04-27T01:18:40.791Z,80.90
2023-04-27T01:21:08.516Z,81.90
2023-04-27T01:23:36.698Z,81.90
2023-04-27T01:26:04.869Z,82.60
2023-04-27T01:28:32.381Z,82.00
2023-04-27T01:31:01.546Z,82.10
2023-04-27T01:33:29.088Z,81.80
2023-04-27T01:35:56.643Z,81.40
2023-04-27T01:38:24.404Z,81.40
2023-04-27T01:40:51.974Z,80.60
2023-04-27T01:43:21.769Z,80.90
2023-04-27T01:45:49.302Z,81.10
2023-04-27T01:48:17.160Z,81.40
2023-04-27T01:50:45.308Z,81.30
2023-04-27T01:53:15.966Z,81.30
2023-04-27T01:55:43.604Z,81.30
2023-04-27T01:58:11.234Z,82.00
2023-04-27T02:00:40.992Z,82.30
2023-04-27T02:03:08.729Z,82.30
2023-04-27T02:05:36.419Z,82.10
2023-04-27T02:08:04.133Z,82.50
2023-04-27T02:10:31.701Z,82.00
2023-04-27T02:12:59.554Z,82.50
2023-04-27T02:15:27.239Z,82.30
2023-04-27T02:17:54.828Z,82.30
2023-04-27T02:20:23.025Z,82.70
2023-04-27T02:22:50.557Z,82.50
2023-04-27T02:25:18.365Z,82.50
2023-04-27T02:27:46.052Z,82.10
2023-04-27T02:30:15.057Z,82.10
2023-04-27T02:32:44.139Z,82.70
2023-04-27T02:35:12.054Z,82.80
2023-04-27T02:37:40.049Z,82.40
2023-04-27T02:40:08.728Z,82.50
2023-04-27T02:42:38.303Z,82.60
2023-04-27T02:45:07.669Z,82.10
2023-04-27T02:47:37.602Z,82.60
2023-04-27T02:50:05.828Z,82.30
2023-04-27T02:52:35.466Z,82.60
2023-04-27T02:55:02.997Z,82.70
2023-04-27T02:57:31.388Z,82.50
2023-04-27T02:59:58.985Z,82.40
2023-04-27T03:02:27.019Z,82.30
2023-04-27T03:04:55.396Z,82.00
2023-04-27T03:07:23.121Z,82.70
2023-04-27T03:09:50.755Z,82.00
2023-04-27T03:12:18.369Z,81.90
2023-04-27T03:14:45.981Z,81.40
2023-04-27T03:17:13.523Z,81.50
2023-04-27T03:19:41.292Z,81.50
2023-04-27T03:22:08.889Z,81.70
2023-04-27T03:24:37.558Z,82.20
2023-04-27T03:27:05.172Z,82.50
2023-04-27T03:29:33.153Z,82.40
2023-04-27T03:32:01.066Z,82.30
2023-04-27T03:34:28.703Z,82.60
2023-04-27T03:36:56.853Z,81.90
2023-04-27T03:39:24.537Z,81.80
2023-04-27T03:41:52.311Z,82.30
2023-04-27T03:44:19.908Z,81.70
2023-04-27T03:46:47.500Z,82.00
2023-04-27T03:49:15.967Z,81.50
2023-04-27T03:51:44.121Z,81.90
2023-04-27T03:54:11.680Z,82.10
2023-04-27T03:56:39.685Z,82.50
2023-04-27T03:59:07.532Z,82.40
2023-04-27T04:01:39.945Z,82.50
2023-04-27T04:04:07.804Z,81.90
2023-04-27T04:06:36.468Z,82.30
2023-04-27T04:09:04.732Z,81.80
2023-04-27T04:11:32.534Z,81.20
2023-04-27T04:14:01.970Z,80.10
2023-04-27T04:16:30.437Z,79.60
2023-04-27T04:18:58.154Z,79.10
2023-04-27T04:21:25.854Z,78.80
2023-04-27T04:23:54.327Z,79.70
2023-04-27T04:26:23.573Z,78.80
2023-04-27T04:28:52.485Z,79.00
2023-04-27T04:31:21.916Z,78.50
2023-04-27T04:33:50.392Z,77.80
2023-04-27T04:36:18.649Z,77.70
2023-04-27T04:38:46.279Z,77.60
2023-04-27T04:41:13.888Z,77.50
2023-04-27T04:43:42.300Z,74.70
2023-04-27T04:46:09.872Z,76.90
2023-04-27T04:48:37.705Z,73.30
2023-04-27T04:51:07.087Z,73.20
2023-04-27T04:53:35.550Z,72.90
2023-04-27T04:56:14.113Z,73.00
2023-04-27T04:58:41.721Z,72.30
2023-04-27T05:01:10.317Z,74.20
2023-04-27T05:03:38.016Z,73.20
2023-04-27T05:06:06.480Z,74.80
2023-04-27T05:08:34.082Z,77.10
2023-04-27T05:11:01.865Z,76.40
2023-04-27T05:13:29.697Z,77.00
2023-04-27T05:15:57.525Z,77.10
2023-04-27T05:18:25.142Z,76.90
2023-04-27T05:20:52.684Z,76.30
2023-04-27T05:23:20.259Z,75.40
2023-04-27T05:25:47.799Z,74.40
2023-04-27T05:28:15.834Z,73.30
2023-04-27T05:30:43.432Z,72.60
2023-04-27T05:33:11.141Z,73.40
2023-04-27T05:35:38.894Z,74.20
2023-04-27T05:38:06.577Z,76.40
2023-04-27T05:40:34.169Z,76.00
2023-04-27T05:43:05.360Z,76.60
2023-04-27T05:45:33.092Z,74.70
2023-04-27T05:48:00.705Z,75.90
2023-04-27T05:50:28.526Z,76.70
2023-04-27T05:52:56.404Z,76.30
2023-04-27T05:55:24.057Z,77.00
2023-04-27T05:58:04.361Z,77.60
2023-04-27T06:00:35.138Z,74.80
2023-04-27T06:03:03.005Z,76.90
2023-04-27T06:05:30.895Z,77.80
2023-04-27T06:07:58.639Z,78.10
2023-04-27T06:10:26.250Z,77.20
2023-04-27T06:12:53.778Z,77.10
2023-04-27T06:15:21.517Z,75.20
2023-04-27T06:17:49.167Z,75.30
2023-04-27T06:20:16.961Z,75.60
2023-04-27T06:22:46.870Z,76.40
2023-04-27T06:25:14.499Z,74.60
2023-04-27T06:27:42.020Z,75.80
2023-04-27T06:30:10.109Z,75.20
2023-04-27T06:32:37.751Z,73.50
2023-04-27T06:35:06.029Z,73.40
2023-04-27T06:37:33.698Z,65.90
2023-04-27T06:40:01.371Z,63.40
2023-04-27T06:42:28.895Z,63.90
2023-04-27T06:44:56.742Z,64.40
2023-04-27T06:47:24.513Z,62.00
2023-04-27T06:49:52.235Z,63.60
2023-04-27T06:52:20.084Z,64.40
2023-04-27T06:54:49.337Z,61.80
2023-04-27T06:57:16.854Z,62.70
2023-04-27T06:59:44.523Z,61.20
2023-04-27T07:02:12.145Z,62.30
2023-04-27T07:04:40.052Z,59.50
2023-04-27T07:07:07.651Z,61.80
2023-04-27T07:09:35.506Z,60.70
2023-04-27T07:12:03.482Z,61.20
2023-04-27T07:14:31.375Z,60.50
2023-04-27T07:16:58.961Z,60.70
2023-04-27T07:19:26.594Z,59.90
2023-04-27T07:21:54.309Z,61.10
2023-04-27T07:24:21.847Z,58.30
2023-04-27T07:26:49.581Z,58.00
2023-04-27T07:29:26.294Z,58.70
2023-04-27T07:31:56.028Z,57.90
2023-04-27T07:34:24.202Z,61.20
2023-04-27T07:36:54.508Z,57.70
2023-04-27T07:39:22.418Z,59.50
2023-04-27T07:41:50.352Z,58.90
2023-04-27T07:44:19.399Z,59.60
2023-04-27T07:46:49.040Z,59.40
2023-04-27T07:49:17.069Z,59.90
2023-04-27T07:51:44.675Z,59.30
2023-04-27T07:54:12.500Z,58.20
2023-04-27T07:56:43.375Z,56.90
2023-04-27T07:59:11.689Z,55.50
2023-04-27T08:01:39.658Z,55.90
2023-04-27T08:04:07.908Z,59.20
2023-04-27T08:06:36.556Z,56.20
2023-04-27T08:09:05.179Z,56.90
2023-04-27T08:11:34.218Z,58.80
2023-04-27T08:14:01.772Z,58.00
2023-04-27T08:16:29.512Z,59.60
2023-04-27T08:18:58.610Z,58.70
2023-04-27T08:21:28.717Z,59.50
2023-04-27T08:23:56.649Z,58.20
2023-04-27T08:26:26.244Z,60.40
2023-04-27T08:28:54.281Z,57.10
2023-04-27T08:31:22.216Z,55.90
2023-04-27T08:33:49.922Z,58.10
2023-04-27T08:36:17.415Z,58.20
2023-04-27T08:38:45.075Z,57.50
2023-04-27T08:41:21.983Z,63.40
2023-04-27T08:43:54.000Z,60.40
2023-04-27T08:46:22.833Z,59.70
2023-04-27T08:48:51.986Z,59.40
2023-04-27T08:51:20.988Z,56.80
2023-04-27T08:53:51.546Z,60.30
2023-04-27T08:56:20.295Z,55.90
2023-04-27T08:58:47.846Z,57.10
2023-04-27T09:01:16.256Z,56.60
2023-04-27T09:03:46.778Z,54.80
2023-04-27T09:06:15.267Z,57.10
2023-04-27T09:08:43.783Z,57.80
2023-04-27T09:11:12.173Z,58.00
2023-04-27T09:13:41.997Z,56.70
2023-04-27T09:16:09.613Z,56.30
2023-04-27T09:18:40.963Z,58.40
2023-04-27T09:21:08.558Z,57.00
2023-04-27T09:23:39.088Z,57.40
2023-04-27T09:26:10.864Z,57.00
2023-04-27T09:28:40.286Z,57.00
2023-04-27T09:31:09.574Z,58.60
2023-04-27T09:33:37.426Z,56.70
2023-04-27T09:36:08.116Z,57.60
2023-04-27T09:38:36.902Z,59.70
2023-04-27T09:41:04.559Z,58.20
2023-04-27T09:43:32.528Z,56.20
2023-04-27T09:46:00.317Z,55.10
2023-04-27T09:48:28.106Z,58.40
2023-04-27T09:50:55.771Z,57.90
2023-04-27T09:53:51.747Z,58.80
2023-04-27T09:56:56.714Z,59.20
2023-04-27T09:59:41.727Z,56.20
2023-04-27T10:02:24.250Z,58.60
2023-04-27T10:05:08.020Z,57.20
2023-04-27T10:07:36.522Z,59.00
2023-04-27T10:10:05.211Z,56.50
2023-04-27T10:12:36.742Z,59.40
2023-04-27T10:15:17.875Z,58.80
2023-04-27T10:17:53.276Z,56.90
2023-04-27T10:20:32.660Z,57.20
2023-04-27T10:23:00.885Z,58.30
2023-04-27T10:25:38.214Z,57.60
2023-04-27T10:28:08.006Z,57.40
2023-04-27T10:30:43.755Z,58.70
2023-04-27T10:33:15.708Z,56.00
2023-04-27T10:35:55.589Z,57.00
2023-04-27T10:38:28.822Z,55.40
2023-04-27T10:41:05.204Z,53.00
2023-04-27T10:43:35.679Z,54.80
2023-04-27T10:46:15.791Z,57.60
2023-04-27T10:48:44.533Z,56.40
2023-04-27T10:51:18.464Z,57.50
2023-04-27T10:53:46.840Z,56.80
2023-04-27T10:56:14.648Z,56.50
2023-04-27T10:58:48.958Z,58.00
2023-04-27T11:01:30.128Z,57.20
2023-04-27T11:03:59.047Z,57.90
2023-04-27T11:06:28.367Z,56.40
2023-04-27T11:08:56.769Z,55.50
2023-04-27T11:11:25.191Z,54.80
2023-04-27T11:13:55.746Z,55.50
2023-04-27T11:16:23.543Z,55.30
2023-04-27T11:18:51.277Z,58.30
2023-04-27T11:21:20.683Z,58.30
2023-04-27T11:23:48.313Z,53.50
2023-04-27T11:26:21.548Z,58.00
2023-04-27T11:29:01.317Z,54.80
2023-04-27T11:31:40.028Z,55.50
2023-04-27T11:34:08.315Z,55.50
2023-04-27T11:36:36.213Z,56.10
2023-04-27T11:39:06.523Z,53.90
2023-04-27T11:41:36.399Z,56.40
2023-04-27T11:44:09.160Z,55.70
2023-04-27T11:46:56.106Z,52.20
2023-04-27T11:49:26.083Z,57.00
2023-04-27T11:51:53.887Z,55.40
2023-04-27T11:54:28.987Z,54.70
2023-04-27T11:57:06.214Z,53.90
2023-04-27T11:59:33.859Z,52.40
2023-04-27T12:02:01.501Z,51.90
2023-04-27T12:04:29.939Z,55.50
2023-04-27T12:06:58.195Z,55.50
2023-04-27T12:09:25.870Z,55.50
2023-04-27T12:11:54.854Z,53.70
2023-04-27T12:14:22.530Z,53.20
2023-04-27T12:16:50.132Z,54.40
2023-04-27T12:19:17.746Z,54.90
2023-04-27T12:21:45.528Z,54.50
2023-04-27T12:24:13.439Z,54.10
2023-04-27T12:26:41.241Z,54.80
2023-04-27T12:29:08.790Z,53.00
2023-04-27T12:31:36.514Z,54.10
2023-04-27T12:34:04.362Z,53.50
2023-04-27T12:36:32.929Z,52.60
2023-04-27T12:39:15.114Z,55.30
2023-04-27T12:41:47.674Z,52.60
2023-04-27T12:44:16.724Z,52.70
2023-04-27T12:46:45.321Z,53.40
2023-04-27T12:49:12.980Z,51.90
2023-04-27T12:51:41.878Z,53.00
2023-04-27T12:54:10.878Z,52.90
2023-04-27T12:56:38.621Z,52.70
2023-04-27T12:59:06.317Z,54.00
2023-04-27T13:01:34.043Z,52.30
2023-04-27T13:04:03.583Z,52.10
2023-04-27T13:06:32.214Z,52.90
2023-04-27T13:09:00.036Z,52.40
2023-04-27T13:11:27.976Z,52.00
2023-04-27T13:13:55.805Z,51.00
2023-04-27T13:16:25.659Z,51.60
2023-04-27T13:18:55.641Z,52.50
2023-04-27T13:21:23.351Z,52.20
2023-04-27T13:23:53.724Z,52.30
2023-04-27T13:26:21.434Z,51.60
2023-04-27T13:28:49.868Z,52.60
2023-04-27T13:31:17.811Z,52.20
2023-04-27T13:33:45.849Z,53.30
2023-04-27T13:36:14.917Z,51.10
2023-04-27T13:38:42.852Z,54.20
2023-04-27T13:41:10.445Z,53.40
2023-04-27T13:43:38.043Z,52.90
2023-04-27T13:46:05.625Z,52.50
2023-04-27T13:48:33.236Z,53.90
2023-04-27T13:51:00.785Z,53.70
2023-04-27T13:53:28.616Z,54.60
2023-04-27T13:55:59.262Z,51.60
2023-04-27T13:58:29.085Z,51.10
2023-04-27T14:00:57.667Z,53.20
2023-04-27T14:03:25.758Z,52.90
2023-04-27T14:05:53.486Z,52.30
2023-04-27T14:08:21.848Z,51.90
2023-04-27T14:10:49.712Z,52.00
2023-04-27T14:13:18.449Z,53.60
2023-04-27T14:15:46.796Z,54.10
2023-04-27T14:18:14.555Z,54.30
2023-04-27T14:20:42.465Z,55.00
2023-04-27T14:23:11.745Z,53.30
2023-04-27T14:25:39.478Z,51.70
2023-04-27T14:28:07.945Z,52.80
2023-04-27T14:30:35.671Z,52.90
2023-04-27T14:33:03.445Z,52.90
2023-04-27T14:35:33.426Z,54.00
2023-04-27T14:38:02.566Z,51.40
2023-04-27T14:40:31.344Z,53.60
2023-04-27T14:42:59.346Z,51.20
2023-04-27T14:45:33.521Z,53.20
2023-04-27T14:48:07.686Z,53.00
2023-04-27T14:50:36.200Z,52.50
2023-04-27T14:53:03.781Z,53.10
2023-04-27T14:55:31.610Z,53.20
2023-04-27T14:57:59.286Z,51.10
2023-04-27T15:00:26.865Z,52.70
2023-04-27T15:02:55.141Z,51.70
2023-04-27T15:05:22.860Z,52.50
2023-04-27T15:07:50.785Z,53.00
2023-04-27T15:10:18.764Z,53.30
2023-04-27T15:12:46.637Z,53.60
2023-04-27T15:15:14.309Z,52.40
2023-04-27T15:17:42.032Z,50.70
2023-04-27T15:20:10.937Z,51.10
2023-04-27T15:22:38.566Z,53.40
2023-04-27T15:25:06.399Z,53.60
2023-04-27T15:27:34.130Z,53.30
2023-04-27T15:30:04.171Z,52.40
2023-04-27T15:32:32.750Z,53.00
2023-04-27T15:35:00.575Z,53.90
2023-04-27T15:37:29.403Z,53.40
2023-04-27T15:39:57.219Z,52.60
2023-04-27T15:42:25.529Z,52.30
2023-04-27T15:44:53.045Z,51.80
2023-04-27T15:47:21.413Z,53.00
2023-04-27T15:49:57.022Z,52.00
2023-04-27T15:52:27.269Z,52.70
2023-04-27T15:54:55.473Z,52.70
2023-04-27T15:57:23.136Z,52.80
2023-04-27T15:59:50.776Z,52.90
2023-04-27T16:02:18.686Z,53.00
2023-04-27T16:04:46.323Z,53.20
2023-04-27T16:07:13.900Z,52.00
2023-04-27T16:09:41.583Z,52.90
2023-04-27T16:12:09.345Z,51.90
2023-04-27T16:14:37.047Z,53.50
2023-04-27T16:17:04.739Z,53.20
2023-04-27T16:19:32.644Z,51.50
2023-04-27T16:22:01.736Z,52.30
2023-04-27T16:24:31.261Z,54.00
2023-04-27T16:26:58.902Z,53.20
2023-04-27T16:29:26.483Z,53.20
2023-04-27T16:31:54.152Z,52.50
2023-04-27T16:34:21.713Z,52.10
2023-04-27T16:36:49.938Z,53.10
2023-04-27T16:39:19.437Z,52.70
2023-04-27T16:41:47.939Z,52.60
2023-04-27T16:44:16.379Z,53.50
2023-04-27T16:46:44.048Z,53.40
2023-04-27T16:49:11.976Z,53.70
2023-04-27T16:51:39.588Z,53.60
2023-04-27T16:54:07.250Z,53.50
2023-04-27T16:56:35.719Z,54.50
2023-04-27T16:59:05.054Z,53.70
2023-04-27T17:01:32.841Z,54.50
2023-04-27T17:04:03.679Z,54.90
2023-04-27T17:06:31.428Z,54.80
2023-04-27T17:08:59.329Z,55.60
2023-04-27T17:11:27.060Z,56.50
2023-04-27T17:13:54.876Z,58.10
2023-04-27T17:16:23.520Z,56.60
2023-04-27T17:18:51.434Z,56.20
2023-04-27T17:21:19.487Z,57.40
2023-04-27T17:23:47.505Z,56.90
2023-04-27T17:26:19.866Z,58.10
2023-04-27T17:28:48.937Z,59.90
2023-04-27T17:31:19.352Z,59.50
2023-04-27T17:33:46.955Z,60.50
2023-04-27T17:36:15.219Z,59.10
2023-04-27T17:38:43.025Z,61.30
2023-04-27T17:41:10.575Z,63.40
2023-04-27T17:43:38.387Z,65.40
2023-04-27T17:46:09.808Z,66.00
2023-04-27T17:48:38.120Z,68.30
2023-04-27T17:51:05.945Z,67.30
2023-04-27T17:53:33.565Z,67.90
2023-04-27T17:56:01.557Z,68.10
2023-04-27T17:58:29.418Z,67.20
2023-04-27T18:00:57.138Z,69.00
2023-04-27T18:03:26.952Z,67.90
2023-04-27T18:05:55.294Z,68.70
2023-04-27T18:08:23.522Z,69.10
2023-04-27T18:10:51.277Z,68.00
2023-04-27T18:13:18.896Z,67.50
2023-04-27T18:15:46.736Z,67.10
2023-04-27T18:18:19.167Z,68.50
2023-04-27T18:20:50.753Z,67.90
2023-04-27T18:23:18.687Z,67.80
2023-04-27T18:25:46.494Z,67.70
2023-04-27T18:28:14.479Z,67.70
2023-04-27T18:30:42.738Z,67.90
2023-04-27T18:33:11.558Z,68.00
2023-04-27T18:35:39.228Z,67.70
2023-04-27T18:38:06.781Z,67.10
2023-04-27T18:40:36.697Z,66.80
2023-04-27T18:43:04.439Z,66.70
2023-04-27T18:45:32.223Z,67.20
2023-04-27T18:48:01.355Z,67.60
2023-04-27T18:50:29.721Z,68.00
2023-04-27T18:52:59.061Z,68.60
2023-04-27T18:55:26.927Z,69.80
2023-04-27T18:57:54.658Z,70.10
2023-04-27T19:00:22.804Z,70.20
2023-04-27T19:02:52.535Z,70.00
2023-04-27T19:05:20.799Z,70.60
2023-04-27T19:07:50.312Z,69.30
2023-04-27T19:10:18.038Z,69.10
2023-04-27T19:12:45.791Z,68.50
2023-04-27T19:15:17.409Z,68.50
2023-04-27T19:17:48.758Z,69.30
2023-04-27T19:20:21.173Z,70.20
2023-04-27T19:22:49.621Z,71.30
2023-04-27T19:25:17.620Z,72.30
2023-04-27T19:27:46.268Z,71.60
2023-04-27T19:30:14.507Z,73.40
2023-04-27T19:32:43.743Z,73.30
2023-04-27T19:35:12.617Z,73.30
2023-04-27T19:37:40.588Z,73.70
2023-04-27T19:40:09.269Z,72.80
2023-04-27T19:42:38.081Z,72.60
2023-04-27T19:45:07.012Z,71.50
2023-04-27T19:47:34.876Z,72.20
2023-04-27T19:50:03.372Z,72.50
2023-04-27T19:52:31.079Z,73.00
2023-04-27T19:55:00.019Z,72.90
2023-04-27T19:57:27.967Z,73.10
2023-04-27T19:59:55.829Z,73.30
2023-04-27T20:02:23.501Z,72.60
2023-04-27T20:04:51.450Z,72.50
2023-04-27T20:07:19.445Z,72.30
2023-04-27T20:09:47.208Z,72.30
2023-04-27T20:12:34.881Z,72.00
2023-04-27T20:15:03.262Z,73.00
2023-04-27T20:17:31.486Z,72.40
2023-04-27T20:19:59.221Z,72.30
2023-04-27T20:22:27.537Z,72.30
2023-04-27T20:24:59.085Z,71.60
2023-04-27T20:27:26.811Z,71.80
2023-04-27T20:29:54.420Z,70.90
2023-04-27T20:32:22.133Z,71.40
2023-04-27T20:34:50.109Z,71.70
2023-04-27T20:37:17.687Z,71.70
2023-04-27T20:39:45.300Z,71.80
2023-04-27T20:42:12.964Z,72.00
2023-04-27T20:44:40.536Z,72.00
2023-04-27T20:47:08.248Z,72.40
2023-04-27T20:49:35.978Z,72.30
2023-04-27T20:52:03.623Z,72.40
2023-04-27T20:54:32.900Z,72.70
2023-04-27T20:57:03.945Z,72.60
2023-04-27T20:59:32.224Z,72.50
2023-04-27T21:01:59.921Z,72.50
2023-04-27T21:04:27.566Z,72.80
2023-04-27T21:06:55.229Z,72.90
2023-04-27T21:09:22.761Z,73.00
2023-04-27T21:11:50.808Z,73.10
2023-04-27T21:14:18.434Z,73.70
2023-04-27T21:16:46.142Z,73.30
2023-04-27T21:19:15.365Z,73.50
2023-04-27T21:21:43.116Z,73.50
2023-04-27T21:24:10.920Z,73.10
2023-04-27T21:26:38.666Z,72.80
2023-04-27T21:29:08.268Z,72.90
2023-04-27T21:31:36.289Z,73.20
2023-04-27T21:34:04.102Z,73.90
2023-04-27T21:36:33.049Z,74.40
2023-04-27T21:39:00.712Z,74.30
2023-04-27T21:41:28.396Z,74.50
2023-04-27T21:43:56.808Z,74.60
2023-04-27T21:46:24.516Z,75.10
2023-04-27T21:48:52.220Z,75.60
2023-04-27T21:51:19.783Z,75.10
2023-04-27T21:53:47.464Z,75.40
2023-04-27T21:56:15.115Z,74.80
2023-04-27T21:59:10.973Z,75.10
2023-04-27T22:01:39.108Z,75.40
2023-04-27T22:04:07.439Z,74.00
2023-04-27T22:06:35.368Z,74.00
2023-04-27T22:09:03.830Z,73.70
2023-04-27T22:11:32.279Z,73.70
2023-04-27T22:13:59.894Z,73.60
2023-04-27T22:16:30.404Z,73.90
2023-04-27T22:18:58.149Z,74.00
2023-04-27T22:21:27.652Z,73.90
2023-04-27T22:23:55.356Z,73.90
2023-04-27T22:26:22.969Z,73.60
2023-04-27T22:28:50.499Z,74.70
2023-04-27T22:31:18.236Z,75.00
2023-04-27T22:33:45.987Z,76.00
2023-04-27T22:36:13.653Z,75.80
2023-04-27T22:38:41.880Z,75.50
2023-04-27T22:41:09.956Z,75.20
2023-04-27T22:43:37.562Z,75.80
2023-04-27T22:46:05.224Z,75.60
2023-04-27T22:48:33.048Z,75.40
2023-04-27T22:51:00.632Z,76.00
2023-04-27T22:53:28.212Z,75.50
2023-04-27T22:55:55.885Z,75.00
2023-04-27T22:58:23.411Z,75.30
2023-04-27T23:00:51.086Z,74.60
2023-04-27T23:03:18.948Z,74.60
2023-04-27T23:05:46.591Z,74.40
2023-04-27T23:08:16.963Z,74.40
2023-04-27T23:10:44.592Z,74.00
2023-04-27T23:13:12.178Z,73.60
2023-04-27T23:15:39.722Z,74.10
2023-04-27T23:18:07.291Z,74.70
2023-04-27T23:20:35.191Z,74.60
2023-04-27T23:23:02.754Z,74.80
2023-04-27T23:25:33.186Z,74.70
2023-04-27T23:28:01.195Z,75.00
2023-04-27T23:30:29.915Z,76.20
2023-04-27T23:32:57.419Z,77.40
2023-04-27T23:35:27.744Z,77.80
2023-04-27T23:37:55.953Z,79.50
2023-04-27T23:40:23.593Z,79.80
2023-04-27T23:42:51.925Z,79.50
2023-04-27T23:45:20.084Z,79.30
2023-04-27T23:47:47.677Z,79.00
2023-04-27T23:50:15.952Z,78.90
2023-04-27T23:52:43.684Z,78.70
2023-04-27T23:55:11.505Z,78.20
2023-04-27T23:57:39.107Z,79.00
